Chili, WI (54420)

4:36 PM CDT on July 28, 2014 (GMT -0500)
Marshfield Municipal (KMFI) Elev 1276 ft | 44.64 °N, 90.19 °W | Change Station

Current weather conditions updated 42 minutes ago

Mostly Cloudy
Mostly Cloudy
73 °F
Feels Like 73 °F
N
15
Wind Variable Wind from NW

Tomorrow is forecast to be Warmer than today.

Today
High -- | Low -- °F
--% Chance of Precip.
Yesterday
High -- | Low -- °F
Precip. -- in
5:43 AM 8:31 PM
Waxing Crescent, 3% visible
Pressure 30.12 in
Visibility 10.0 miles
Clouds Few 4800 ft
Scattered Clouds 6500 ft
Mostly Cloudy 8000 ft
Dew Point 52 °F
Humidity 48%
Rainfall 0.00 in
Snow Depth Not available.
UV 4 out of 12
Pollen 7.30 out of 12
Air Quality Not available.
Flu Activity Not available.
METAR KMFI 282054Z AUTO 32013KT 10SM FEW048 SCT065 BKN080 23/11 A3011 RMK AO2 SLP197 T02280111 56006

More Conditions Fewer Conditions

Pressure 30.12 in
Visibility 10.0 miles
Clouds Few 4800 ft
Scattered Clouds 6500 ft
Mostly Cloudy 8000 ft
Dew Point 52 °F
Humidity 48%
Rainfall 0.00 in
Snow Depth Not available.
UV 4 out of 12
Pollen 7.30 out of 12
Air Quality Not available.
Flu Activity Not available.
METAR KMFI 282054Z AUTO 32013KT 10SM FEW048 SCT065 BKN080 23/11 A3011 RMK AO2 SLP197 T02280111 56006

More Conditions Fewer Conditions

10-Day Weather Forecast

Almanac

Astronomy

Jul. 28, 2014 Rise Set
Actual Time 5:43 AM CDT 8:31 PM CDT
Civil Twilight 5:09 AM CDT 9:05 PM CDT
Nautical Twilight 4:26 AM CDT 9:47 PM CDT
Astronomical Twilight 3:36 AM CDT 10:37 PM CDT
Moon 7:31 AM CDT 9:05 PM CDT
Length of Visible Light 15h 55m
Length of Day
14h 47m
Tomorrow will be 2m 15s shorter.
Waxing Crescent, 3% of the Moon is Illuminated
Today
Waxing Crescent
Aug 3
First Quarter
Aug 10
Full
Aug 17
Last Quarter
Aug 25
New

Today's Extremes

State Highs State Lows

Community

WunderPhotos

Upload Photos

1,738,498 photos uploaded!

Nearby

Snow Depth

Station Depth Elevation
No new snow has been reported.

Earthquake Activity

City Distance Mag. Time & Date
No recent earthquake activity has been reported nearby.
Minimum magnitude displayed is 2.5.

Coastal Water Temperatures

Place Temperature
No Stations Reporting

Nearby Weather Stations

Station Location Temp. Heat Index Dew Point Humidity Wind Precip. Elev Updated Type
WIDOT Pittsville - STH 13 @ STH 80, Pittsville, WI 73 °F 77 °F 48 °F 41% NW  at  7 mph 0.00 in / hr 1040 ft 3:18 PM CDT MADIS

Show More Stations Show Fewer Stations